New Point, Indiana
Current Conditions -  °F | °C
As of 1:15 PM on Thursday 29 Jan 2015 (Local Time) from KI67 Reporting Station
Overcast Overcast  
Wind Chill: 41°   Ceiling: 2900
Heat Index: 46°   Visibility: 10mi
Dew Point: 36°   Wind: 13mph
Humidity: 66%   Direction: 260°W
Pressure: 29.84"   Gusts: 28mph
Location:  39.31°N, 85.33°W
Report Text: KI67 291815Z AUTO 26011G24KT 10SM OVC029 08/02 A2984 RMK AO1
Loading
Personal Weather Stations






























Interactive Weather Map New forecast layout! Learn more

10-Day Weather Forecast

Advertisements
Track Severe Weather on mobile